McCoysville, Pennsylvania
Current Conditions -  °F | °C
As of 5:15 AM on Sunday 23 Nov 2014 (Local Time) from KUNV Reporting Station
Overcast Overcast  
Wind Chill: 32°   Ceiling: 3800
Heat Index: 32°   Visibility: 10mi
Dew Point: 29°   Wind: 0mph
Humidity: 88%   Direction: NA
Pressure: 30.13"   Gusts: NA
Location:  40.5727°N, 77.4248°W
Report Text: KUNV 231015Z AUTO 00000KT 10SM BKN038 OVC055 00/M02 A3013 RMK AO2 T00021016
Loading
Personal Weather Stations






























Interactive Weather Map New forecast layout! Learn more

10-Day Weather Forecast

Advertisements
Track Severe Weather on mobile